Nampa, Idaho
Current Conditions -  °F | °C
As of 1:15 AM on Thursday 29 Jan 2015 (Local Time) from KMAN Reporting Station
NA  
Wind Chill: 27°   Ceiling: NA
Heat Index: 34°   Visibility: 7mi
Dew Point: 34°   Wind: 8mph
Humidity: 100%   Direction: 130°SE
Pressure: 30.42"   Gusts: NA
Location:  43.58°N, 116.57°W
Report Text: KMAN 290815Z AUTO 13007KT 7SM 01/01 A3042 RMK AO1
Loading
Personal Weather Stations






























Interactive Weather Map New forecast layout! Learn more

10-Day Weather Forecast

Advertisements
Track Severe Weather on mobile